createdAt,value
2018-11-10T00:07:13.453Z,27.93
2018-11-10T00:17:34.901Z,26.03
2018-11-10T00:27:57.064Z,24.80
2018-11-10T00:38:19.392Z,24.10
2018-11-10T00:48:40.879Z,24.83
2018-11-10T00:59:01.690Z,23.93
2018-11-10T01:09:24.092Z,24.10
2018-11-10T01:19:45.199Z,26.07
2018-11-10T01:30:07.654Z,25.13
2018-11-10T01:40:29.055Z,25.70
2018-11-10T01:50:50.060Z,21.30
2018-11-10T02:01:11.872Z,20.43
2018-11-10T02:11:32.947Z,20.80
2018-11-10T02:21:54.043Z,21.33
2018-11-10T02:32:17.773Z,22.77
2018-11-10T02:42:39.318Z,21.10
2018-11-10T02:53:00.929Z,21.07
2018-11-10T03:03:22.272Z,19.67
2018-11-10T03:13:43.258Z,20.03
2018-11-10T03:24:04.129Z,21.40
2018-11-10T03:34:25.266Z,20.20
2018-11-10T03:44:46.519Z,21.43
2018-11-10T03:55:08.354Z,19.37
2018-11-10T04:05:29.321Z,19.33
2018-11-10T04:15:50.465Z,18.57
2018-11-10T04:26:11.716Z,17.13
2018-11-10T04:36:32.563Z,16.77
2018-11-10T04:46:54.220Z,17.63
2018-11-10T04:57:16.199Z,18.47
2018-11-10T05:07:38.650Z,17.97
2018-11-10T05:18:01.315Z,19.27
2018-11-10T05:28:22.656Z,18.20
2018-11-10T05:38:44.429Z,19.10
2018-11-10T05:49:06.284Z,17.77
2018-11-10T05:59:28.644Z,17.73
2018-11-10T06:09:53.602Z,15.83
2018-11-10T06:20:16.846Z,15.50
2018-11-10T06:30:39.400Z,13.27
2018-11-10T06:41:05.345Z,12.80
2018-11-10T06:51:26.881Z,14.77
2018-11-10T07:01:52.105Z,14.77
2018-11-10T07:12:16.579Z,14.43
2018-11-10T07:22:38.266Z,14.37
2018-11-10T07:33:02.175Z,13.27
2018-11-10T07:43:24.146Z,13.77
2018-11-10T07:53:46.604Z,12.50
2018-11-10T08:04:08.250Z,13.17
2018-11-10T08:14:29.603Z,13.77
2018-11-10T08:24:51.121Z,12.43
2018-11-10T08:35:13.011Z,12.20
2018-11-10T08:45:16.344Z,11.10
2018-11-10T08:55:19.233Z,12.20
2018-11-10T09:05:22.476Z,12.43
2018-11-10T09:15:25.458Z,13.50
2018-11-10T09:25:28.389Z,11.13
2018-11-10T09:35:31.320Z,11.97
2018-11-10T09:45:34.218Z,11.33
2018-11-10T09:55:37.543Z,10.97
2018-11-10T10:05:40.442Z,13.50
2018-11-10T10:15:43.349Z,11.83
2018-11-10T10:25:46.429Z,12.27
2018-11-10T10:35:49.305Z,12.37
2018-11-10T10:45:52.145Z,15.17
2018-11-10T10:55:55.052Z,13.17
2018-11-10T11:06:02.248Z,12.37
2018-11-10T11:16:05.915Z,13.80
2018-11-10T11:26:08.793Z,11.87
2018-11-10T11:36:11.802Z,13.00
2018-11-10T11:46:14.801Z,11.17
2018-11-10T11:56:17.662Z,29.77
2018-11-10T12:06:20.577Z,32.73
2018-11-10T12:16:27.196Z,15.53
2018-11-10T12:26:26.384Z,16.73
2018-11-10T12:37:57.523Z,20.37
2018-11-10T12:48:00.411Z,16.47
2018-11-10T12:58:03.378Z,16.03
2018-11-10T13:08:06.373Z,18.30
2018-11-10T13:18:09.182Z,18.90
2018-11-10T13:28:12.089Z,18.97
2018-11-10T13:38:15.120Z,20.00
2018-11-10T13:48:17.923Z,19.40
2018-11-10T13:58:20.836Z,19.37
2018-11-10T14:08:24.227Z,20.03
2018-11-10T14:18:27.348Z,24.70
2018-11-10T14:28:30.703Z,23.90
2018-11-10T14:38:33.630Z,25.10
2018-11-10T14:48:36.480Z,32.73
2018-11-10T14:58:39.488Z,38.27
2018-11-10T15:08:42.252Z,45.20
2018-11-10T15:19:20.830Z,41.87
2018-11-10T15:29:20.694Z,50.30
2018-11-10T15:39:20.667Z,58.50
2018-11-10T15:49:20.538Z,58.17
2018-11-10T15:59:23.075Z,67.50
2018-11-10T16:09:24.235Z,64.70
2018-11-10T16:19:24.522Z,61.77
2018-11-10T16:29:24.398Z,74.83
2018-11-10T16:39:24.288Z,62.83
2018-11-10T16:49:24.139Z,65.00
2018-11-10T16:59:24.016Z,90.80
2018-11-10T17:09:23.883Z,70.17
2018-11-10T17:19:23.815Z,69.80
2018-11-10T17:29:23.703Z,72.50
2018-11-10T17:39:23.738Z,70.70
2018-11-10T17:49:23.475Z,62.60
2018-11-10T17:59:23.352Z,89.30
2018-11-10T18:09:23.222Z,69.23
2018-11-10T18:19:23.103Z,89.27
2018-11-10T18:29:23.003Z,72.97
2018-11-10T18:39:23.009Z,52.30
2018-11-10T18:49:22.882Z,47.40
2018-11-10T18:59:22.751Z,59.17
2018-11-10T19:09:23.044Z,59.13
2018-11-10T19:19:22.902Z,58.77
2018-11-10T19:29:22.795Z,50.73
2018-11-10T19:39:22.657Z,52.50
2018-11-10T19:49:22.513Z,49.27
2018-11-10T19:59:22.372Z,51.93
2018-11-10T20:09:22.279Z,53.37
2018-11-10T20:19:22.550Z,51.97
2018-11-10T20:29:22.361Z,55.83
2018-11-10T20:39:22.278Z,53.47
2018-11-10T20:49:22.221Z,53.73
2018-11-10T20:59:22.108Z,55.23
2018-11-10T21:09:23.311Z,51.47
2018-11-10T21:19:24.508Z,48.83
2018-11-10T21:29:25.551Z,48.30
2018-11-10T21:39:44.554Z,49.40
2018-11-10T21:50:04.849Z,55.17
2018-11-10T22:00:24.049Z,52.27
2018-11-10T22:10:44.075Z,47.50
2018-11-10T22:21:01.891Z,46.07
2018-11-10T22:31:20.023Z,44.17
2018-11-10T22:41:38.090Z,46.00
2018-11-10T22:51:56.205Z,42.37
2018-11-10T23:02:14.757Z,35.87
2018-11-10T23:12:33.240Z,28.67
2018-11-10T23:22:51.317Z,23.33
2018-11-10T23:33:09.325Z,19.13
2018-11-10T23:43:27.375Z,18.50
2018-11-10T23:53:45.633Z,18.07
